Time;durP1;ratioP1;P1;durP2;ratioP2;P2;SDS_P1;SDS_P2;PMS_P1;PMS_P2;Temp;Humidity;BMP_temperature;BMP_pressure;BME280_temperature;BME280_humidity;BME280_pressure;Samples;Min_cycle;Max_cycle;Signal;HPM_P1;HPM_P2
2022/11/15 00:01:34;;;;;;;0.50;0.50;;;9.00;99.90;;;;;;5072077;28;20052;-66
2022/11/15 00:03:59;;;;;;;0.80;0.80;;;9.00;99.90;;;;;;5066994;28;20052;-66
2022/11/15 00:06:25;;;;;;;0.30;0.30;;;9.00;99.90;;;;;;5052123;28;20053;-66
2022/11/15 00:08:50;;;;;;;1.10;0.85;;;9.00;99.90;;;;;;5061171;28;20041;-66
2022/11/15 00:11:16;;;;;;;0.60;0.60;;;9.00;99.90;;;;;;5071262;28;20052;-66
2022/11/15 00:13:42;;;;;;;0.20;0.20;;;9.00;99.90;;;;;;5067137;28;20045;-66
2022/11/15 00:16:09;;;;;;;1.65;1.00;;;9.00;99.90;;;;;;5062830;28;20080;-66
2022/11/15 00:18:34;;;;;;;0.47;0.47;;;9.00;99.90;;;;;;5070009;28;20049;-67
2022/11/15 00:21:06;;;;;;;0.35;0.35;;;9.00;99.90;;;;;;5066941;28;20041;-67
2022/11/15 00:23:33;;;;;;;0.30;0.30;;;9.00;99.90;;;;;;5058025;28;20174;-67
2022/11/15 00:25:59;;;;;;;2.30;1.35;;;9.00;99.90;;;;;;5071370;28;20040;-66
2022/11/15 00:28:25;;;;;;;0.75;0.75;;;9.00;99.90;;;;;;5071551;28;20076;-66
2022/11/15 00:30:51;;;;;;;0.40;0.40;;;8.90;99.90;;;;;;5063041;28;20032;-66
2022/11/15 00:33:17;;;;;;;0.75;0.75;;;9.00;99.90;;;;;;5061606;28;20056;-67
2022/11/15 00:35:42;;;;;;;2.22;0.98;;;8.90;99.90;;;;;;5072165;28;20088;-66
2022/11/15 00:38:08;;;;;;;0.68;0.68;;;8.90;99.90;;;;;;5057494;28;20049;-65
2022/11/15 00:40:34;;;;;;;0.70;0.70;;;9.00;99.90;;;;;;5053896;28;20048;-66
2022/11/15 00:42:59;;;;;;;1.85;1.30;;;9.00;99.90;;;;;;5053057;28;20052;-66
2022/11/15 00:45:25;;;;;;;0.30;0.30;;;9.00;99.90;;;;;;5071340;28;20040;-66
2022/11/15 00:47:52;;;;;;;0.52;0.52;;;9.00;99.90;;;;;;5055236;28;20083;-66
2022/11/15 00:50:18;;;;;;;0.75;0.63;;;9.00;99.90;;;;;;5051639;28;20049;-66
2022/11/15 00:52:44;;;;;;;1.48;1.25;;;8.90;99.90;;;;;;5052373;28;20041;-66
2022/11/15 00:55:14;;;;;;;0.68;0.68;;;8.90;99.90;;;;;;5051272;28;20040;-66
2022/11/15 00:57:40;;;;;;;2.33;1.02;;;8.90;99.90;;;;;;5055979;28;20094;-66
2022/11/15 01:00:07;;;;;;;1.10;0.98;;;8.80;99.90;;;;;;5070082;28;20044;-66
2022/11/15 01:02:32;;;;;;;0.60;0.60;;;8.80;99.90;;;;;;5044630;28;20048;-66
2022/11/15 01:04:58;;;;;;;0.93;0.93;;;8.80;99.90;;;;;;5051418;28;20453;-66
2022/11/15 01:07:23;;;;;;;0.10;0.10;;;8.80;99.90;;;;;;5051342;28;20051;-66
2022/11/15 01:09:49;;;;;;;0.45;0.45;;;8.80;99.90;;;;;;5050877;28;20481;-66
2022/11/15 01:12:15;;;;;;;0.47;0.47;;;8.80;99.90;;;;;;5050935;28;20044;-66
2022/11/15 01:14:40;;;;;;;1.63;0.82;;;8.80;99.90;;;;;;5069759;28;20083;-66
2022/11/15 01:17:06;;;;;;;2.05;1.48;;;8.70;99.90;;;;;;5060484;28;20472;-66
2022/11/15 01:19:31;;;;;;;0.55;0.43;;;8.70;99.90;;;;;;5039183;28;20056;-66
2022/11/15 01:21:57;;;;;;;0.32;0.32;;;8.70;99.90;;;;;;5069915;28;20070;-67
2022/11/15 01:24:22;;;;;;;1.00;1.00;;;8.70;99.90;;;;;;5069047;28;20193;-66
2022/11/15 01:26:48;;;;;;;0.20;0.20;;;8.70;99.90;;;;;;5057953;28;20039;-66
2022/11/15 01:29:14;;;;;;;2.80;2.03;;;8.70;99.90;;;;;;5065928;28;20049;-67
2022/11/15 01:31:39;;;;;;;0.68;0.68;;;8.70;99.90;;;;;;5064359;28;20446;-67
2022/11/15 01:34:05;;;;;;;0.25;0.25;;;8.70;99.90;;;;;;5053466;28;20049;-66
2022/11/15 01:36:31;;;;;;;1.75;1.65;;;8.70;99.90;;;;;;5050422;28;20037;-66
2022/11/15 01:38:57;;;;;;;0.88;0.88;;;8.60;99.90;;;;;;5050743;28;20182;-66
2022/11/15 01:41:26;;;;;;;0.82;0.82;;;8.50;99.90;;;;;;5063511;28;20068;-66
2022/11/15 01:43:54;;;;;;;0.20;0.20;;;8.50;99.90;;;;;;5050524;28;20045;-66
2022/11/15 01:46:33;;;;;;;4.03;1.38;;;8.50;99.90;;;;;;5049322;28;20508;-66
2022/11/15 01:49:03;;;;;;;1.05;1.05;;;8.40;99.90;;;;;;5061398;28;20063;-67
2022/11/15 01:51:32;;;;;;;1.05;0.95;;;8.40;99.90;;;;;;5070204;28;20051;-66
2022/11/15 01:54:03;;;;;;;0.40;0.40;;;8.30;99.90;;;;;;5056942;28;20037;-66
2022/11/15 01:56:33;;;;;;;2.03;1.83;;;8.30;99.90;;;;;;5050918;28;20080;-66
2022/11/15 01:59:03;;;;;;;0.82;0.82;;;8.10;99.90;;;;;;5055336;28;20072;-67
2022/11/15 02:01:30;;;;;;;1.00;1.00;;;8.20;99.90;;;;;;5068268;28;20079;-66
2022/11/15 02:04:03;;;;;;;0.45;0.45;;;8.10;99.90;;;;;;5049220;28;20041;-66
2022/11/15 02:06:29;;;;;;;0.45;0.45;;;8.10;99.90;;;;;;5069366;28;20079;-66
2022/11/15 02:08:56;;;;;;;1.17;1.17;;;8.10;99.90;;;;;;5070674;28;20036;-66
2022/11/15 02:11:22;;;;;;;2.33;2.20;;;8.10;99.90;;;;;;5057266;28;20399;-66
2022/11/15 02:13:48;;;;;;;1.80;1.70;;;8.00;99.90;;;;;;5049797;28;20384;-66
2022/11/15 02:16:58;;;;;;;7.68;1.77;;;7.90;99.90;;;;;;5054703;28;20060;-66
2022/11/15 02:19:32;;;;;;;0.95;0.95;;;7.90;99.90;;;;;;5020399;28;20056;-66
2022/11/15 02:22:45;;;;;;;0.10;0.10;;;7.90;99.90;;;;;;5049606;28;20049;-66
2022/11/15 02:25:37;;;;;;;2.83;1.90;;;7.90;99.90;;;;;;5022500;28;20053;-66
2022/11/15 02:28:35;;;;;;;2.70;2.50;;;7.90;99.90;;;;;;5050087;28;20618;-66
2022/11/15 02:31:20;;;;;;;0.43;0.43;;;7.90;99.90;;;;;;5063839;28;20037;-66
2022/11/15 02:34:12;;;;;;;0.10;0.10;;;7.90;99.90;;;;;;5067958;28;20045;-66
2022/11/15 02:37:09;;;;;;;0.10;0.10;;;7.80;99.90;;;;;;5048062;28;20056;-65
2022/11/15 02:40:09;;;;;;;0.40;0.40;;;7.80;99.90;;;;;;5060472;28;20140;-65
2022/11/15 02:45:31;;;;;;;0.43;0.43;;;7.80;99.90;;;;;;5062127;28;20057;-65
2022/11/15 02:47:59;;;;;;;0.20;0.20;;;7.90;99.90;;;;;;5059477;28;20168;-66
2022/11/15 02:50:28;;;;;;;0.32;0.32;;;7.90;99.90;;;;;;5060721;28;20098;-66
2022/11/15 02:52:53;;;;;;;0.35;0.35;;;7.90;99.90;;;;;;5049670;28;20480;-65
2022/11/15 02:55:28;;;;;;;0.88;0.88;;;7.90;99.90;;;;;;5065028;28;20132;-66
2022/11/15 02:58:11;;;;;;;0.75;0.75;;;7.90;99.90;;;;;;5050200;28;20040;-65
2022/11/15 03:00:53;;;;;;;0.28;0.28;;;7.90;99.90;;;;;;5064021;28;20106;-65
2022/11/15 03:03:22;;;;;;;0.30;0.30;;;7.90;99.90;;;;;;5064148;28;20053;-66
2022/11/15 03:06:00;;;;;;;1.50;1.40;;;7.90;99.90;;;;;;5066417;28;20128;-66
2022/11/15 03:08:39;;;;;;;0.75;0.75;;;8.00;99.90;;;;;;5065643;28;20045;-66
2022/11/15 03:11:15;;;;;;;0.20;0.20;;;7.90;99.90;;;;;;5061587;28;20389;-66
2022/11/15 03:14:06;;;;;;;0.35;0.35;;;7.90;99.90;;;;;;5070389;28;20043;-66
2022/11/15 03:16:37;;;;;;;0.13;0.13;;;7.90;99.90;;;;;;5065575;28;20044;-66
2022/11/15 03:19:17;;;;;;;0.45;0.45;;;7.90;99.90;;;;;;5049482;28;20499;-66
2022/11/15 03:21:45;;;;;;;0.30;0.30;;;8.00;99.90;;;;;;5056967;28;20091;-68
2022/11/15 03:24:14;;;;;;;1.58;1.48;;;7.90;99.90;;;;;;5052461;28;20052;-66
2022/11/15 03:26:43;;;;;;;0.47;0.47;;;8.00;99.90;;;;;;5058748;28;20119;-66
2022/11/15 03:29:14;;;;;;;2.80;1.85;;;8.00;99.90;;;;;;5072174;28;20052;-66
2022/11/15 03:31:48;;;;;;;0.63;0.63;;;8.00;99.90;;;;;;5061307;28;20478;-66
2022/11/15 03:34:31;;;;;;;;;;;8.00;99.90;;;;;;5073221;28;20064;-66
2022/11/15 03:36:57;;;;;;;1.27;1.23;;;7.90;99.90;;;;;;5071379;28;19924;-67
2022/11/15 03:39:24;;;;;;;0.63;0.63;;;8.00;99.90;;;;;;5059849;28;20051;-66
2022/11/15 03:41:53;;;;;;;0.98;0.65;;;8.00;99.90;;;;;;5057483;28;20072;-66
2022/11/15 03:44:34;;;;;;;0.40;0.40;;;7.90;99.90;;;;;;5041079;28;20045;-66
2022/11/15 03:47:07;;;;;;;1.45;1.35;;;8.00;99.90;;;;;;5057019;28;20041;-66
2022/11/15 03:49:36;;;;;;;0.20;0.20;;;8.00;99.90;;;;;;5055722;28;20056;-66
2022/11/15 03:52:03;;;;;;;1.65;1.08;;;7.90;99.90;;;;;;5065283;28;20036;-66
2022/11/15 03:54:29;;;;;;;0.22;0.22;;;8.00;99.90;;;;;;5036532;28;20499;-66
2022/11/15 03:56:55;;;;;;;1.95;1.15;;;8.00;99.90;;;;;;5059399;28;20044;-66
2022/11/15 03:59:21;;;;;;;1.13;0.73;;;8.00;99.90;;;;;;5038309;28;20503;-66
2022/11/15 04:01:47;;;;;;;1.05;1.05;;;8.00;99.90;;;;;;5046939;28;20041;-66
2022/11/15 04:04:12;;;;;;;0.75;0.75;;;8.10;99.90;;;;;;5051952;28;20442;-66
2022/11/15 04:06:38;;;;;;;0.95;0.95;;;8.10;99.90;;;;;;5051124;28;20041;-66
2022/11/15 04:09:04;;;;;;;0.28;0.28;;;8.10;99.90;;;;;;5051417;28;20045;-66
2022/11/15 04:11:29;;;;;;;0.63;0.63;;;8.10;99.90;;;;;;5052017;28;20049;-66
2022/11/15 04:13:55;;;;;;;1.45;1.35;;;8.00;99.90;;;;;;5053002;28;20128;-66
2022/11/15 04:16:21;;;;;;;0.10;0.10;;;8.10;99.90;;;;;;5063105;28;20416;-66
2022/11/15 04:24:11;;;;;;;1.05;1.00;;;8.10;99.90;;;;;;5034614;28;20048;-69
2022/11/15 04:24:16;;;;;;;0.50;0.50;;;8.10;99.90;;;;;;5071467;28;20056;-66
2022/11/15 04:26:42;;;;;;;0.68;0.68;;;8.20;99.90;;;;;;5052763;28;20048;-65
2022/11/15 04:31:51;;;;;;;1.77;1.35;;;8.20;99.90;;;;;;5071003;28;20071;-66
2022/11/15 04:34:17;;;;;;;0.40;0.40;;;8.20;99.90;;;;;;5056454;28;20057;-66
2022/11/15 04:39:26;;;;;;;0.20;0.20;;;8.30;99.90;;;;;;5071298;28;20063;-66
2022/11/15 04:41:52;;;;;;;0.30;0.30;;;8.30;99.90;;;;;;5071999;28;20036;-66
2022/11/15 04:44:17;;;;;;;4.13;1.50;;;8.30;99.90;;;;;;5069453;28;20403;-66
2022/11/15 04:46:43;;;;;;;1.10;0.57;;;8.30;99.90;;;;;;5071366;28;20096;-66
2022/11/15 04:49:08;;;;;;;0.85;0.85;;;8.30;99.90;;;;;;5071131;28;20158;-66
2022/11/15 04:51:34;;;;;;;0.73;0.73;;;8.40;99.90;;;;;;5054862;28;20108;-66
2022/11/15 04:54:00;;;;;;;8.77;1.42;;;8.40;99.90;;;;;;5054279;28;20512;-66
2022/11/15 04:56:25;;;;;;;4.90;1.65;;;8.40;99.90;;;;;;5071737;28;20040;-66
2022/11/15 04:58:51;;;;;;;1.00;1.00;;;8.50;99.90;;;;;;5066356;28;20045;-66
2022/11/15 05:01:17;;;;;;;12.50;1.90;;;8.50;99.90;;;;;;5049936;28;20041;-66
2022/11/15 05:06:27;;;;;;;12.88;1.60;;;8.50;99.90;;;;;;5071553;28;20096;-66
2022/11/15 05:08:53;;;;;;;0.10;0.10;;;8.50;99.90;;;;;;5066603;28;20041;-66
2022/11/15 05:11:20;;;;;;;0.22;0.22;;;8.60;99.90;;;;;;5050695;28;20428;-66
2022/11/15 05:13:45;;;;;;;1.75;1.27;;;8.50;99.90;;;;;;5063868;28;20504;-66
2022/11/15 05:16:11;;;;;;;1.83;1.60;;;8.60;99.90;;;;;;5058462;28;20090;-66
2022/11/15 05:18:40;;;;;;;0.32;0.32;;;8.60;99.90;;;;;;5068608;28;20051;-66
2022/11/15 05:21:15;;;;;;;1.00;1.00;;;8.60;99.90;;;;;;5047465;28;20098;-66
2022/11/15 05:23:41;;;;;;;1.15;1.13;;;8.60;99.90;;;;;;5061684;28;20105;-66
2022/11/15 05:26:08;;;;;;;1.45;1.30;;;8.70;99.90;;;;;;5052137;28;20076;-66
2022/11/15 05:28:34;;;;;;;1.80;1.65;;;8.70;99.90;;;;;;5045406;28;20132;-65
2022/11/15 05:31:05;;;;;;;0.43;0.43;;;8.70;99.90;;;;;;5056755;28;20052;-66
2022/11/15 05:33:32;;;;;;;0.43;0.43;;;8.80;99.90;;;;;;5052117;28;20064;-66
2022/11/15 05:36:03;;;;;;;0.55;0.55;;;8.80;99.90;;;;;;5033444;28;20052;-66
2022/11/15 05:38:30;;;;;;;0.93;0.68;;;8.80;99.90;;;;;;5051311;28;20072;-66
2022/11/15 05:40:55;;;;;;;2.50;1.42;;;8.90;99.90;;;;;;5050919;28;20542;-66
2022/11/15 05:43:21;;;;;;;4.90;1.23;;;8.90;99.90;;;;;;5030934;28;20045;-66
2022/11/15 05:45:47;;;;;;;1.05;1.02;;;8.90;99.90;;;;;;5051084;28;20405;-66
2022/11/15 05:48:14;;;;;;;0.80;0.80;;;8.90;99.90;;;;;;5066004;28;20036;-66
2022/11/15 05:50:42;;;;;;;0.05;0.05;;;9.00;99.90;;;;;;5060389;28;20120;-66
2022/11/15 05:53:09;;;;;;;0.10;0.10;;;9.00;99.90;;;;;;5050457;28;20079;-65
2022/11/15 05:55:38;;;;;;;0.88;0.88;;;9.00;99.90;;;;;;5050580;28;20476;-66
2022/11/15 05:58:03;;;;;;;4.20;1.88;;;9.10;99.90;;;;;;5049206;28;20049;-66
2022/11/15 06:00:29;;;;;;;1.30;1.20;;;9.10;99.90;;;;;;5053763;28;20056;-66
2022/11/15 06:02:55;;;;;;;0.38;0.38;;;9.20;99.90;;;;;;5068827;28;20044;-65
2022/11/15 06:05:20;;;;;;;0.10;0.10;;;9.20;99.90;;;;;;5069580;28;20484;-66
2022/11/15 06:07:46;;;;;;;0.70;0.70;;;9.20;99.90;;;;;;5060445;28;20049;-66
2022/11/15 06:10:11;;;;;;;1.42;1.35;;;9.20;99.90;;;;;;5049912;28;20040;-66
2022/11/15 06:12:37;;;;;;;0.50;0.50;;;9.30;99.90;;;;;;5059033;28;20052;-66
2022/11/15 06:15:03;;;;;;;7.68;1.65;;;9.30;99.90;;;;;;5069426;28;20376;-66
2022/11/15 06:17:29;;;;;;;2.03;1.88;;;9.30;99.90;;;;;;5070720;28;20055;-66
2022/11/15 06:19:54;;;;;;;0.98;0.95;;;9.40;99.90;;;;;;5064578;28;20060;-66
2022/11/15 06:22:20;;;;;;;0.55;0.55;;;9.40;99.90;;;;;;5067630;28;20580;-66
2022/11/15 06:24:46;;;;;;;1.23;0.82;;;9.40;99.90;;;;;;5054241;28;20045;-66
2022/11/15 06:27:12;;;;;;;0.40;0.40;;;9.40;99.90;;;;;;5053994;28;20052;-66
2022/11/15 06:29:37;;;;;;;0.20;0.20;;;9.50;99.90;;;;;;5055267;28;20396;-66
2022/11/15 06:32:03;;;;;;;0.10;0.10;;;9.50;99.90;;;;;;5066850;28;20095;-66
2022/11/15 06:34:29;;;;;;;0.90;0.90;;;9.50;99.90;;;;;;5073074;28;20036;-66
2022/11/15 06:36:54;;;;;;;1.08;1.05;;;9.60;99.90;;;;;;5058448;28;20114;-66
2022/11/15 06:39:20;;;;;;;1.30;1.20;;;9.60;99.90;;;;;;5069499;28;20037;-66
2022/11/15 06:41:46;;;;;;;0.22;0.22;;;9.60;99.90;;;;;;5074513;28;20076;-66
2022/11/15 06:44:11;;;;;;;0.85;0.85;;;9.60;99.90;;;;;;5073846;28;20495;-66
2022/11/15 06:46:37;;;;;;;1.75;1.42;;;9.60;99.90;;;;;;5060416;28;20468;-66
2022/11/15 06:49:02;;;;;;;3.72;2.10;;;9.70;99.90;;;;;;5035762;28;20048;-66
2022/11/15 06:51:28;;;;;;;0.20;0.20;;;9.70;99.90;;;;;;5054213;28;20388;-66
2022/11/15 06:53:54;;;;;;;1.48;1.38;;;9.70;99.90;;;;;;5058199;28;20060;-66
2022/11/15 06:56:19;;;;;;;0.70;0.70;;;9.70;99.90;;;;;;5068871;28;20056;-66
2022/11/15 06:58:45;;;;;;;1.38;1.30;;;9.70;99.90;;;;;;5070308;28;20041;-65
2022/11/15 07:01:11;;;;;;;0.60;0.60;;;9.80;99.90;;;;;;5061158;28;20072;-66
2022/11/15 07:03:39;;;;;;;0.43;0.43;;;9.80;99.90;;;;;;5053984;28;20526;-65
2022/11/15 07:06:06;;;;;;;0.50;0.50;;;9.80;99.90;;;;;;5072133;28;20147;-66
2022/11/15 07:08:32;;;;;;;6.40;1.33;;;9.90;99.90;;;;;;5054882;28;20041;-66
2022/11/15 07:11:06;;;;;;;0.63;0.63;;;9.90;99.90;;;;;;5064426;28;20041;-66
2022/11/15 07:13:33;;;;;;;3.30;1.75;;;9.90;99.90;;;;;;5052378;28;20057;-66
2022/11/15 07:16:02;;;;;;;0.20;0.20;;;10.00;99.90;;;;;;5064507;28;20102;-66
2022/11/15 07:18:28;;;;;;;1.02;0.85;;;9.90;99.90;;;;;;5060688;28;20037;-66
2022/11/15 07:20:54;;;;;;;1.02;1.02;;;10.00;99.90;;;;;;5052329;28;20052;-66
2022/11/15 07:23:19;;;;;;;0.43;0.43;;;10.00;99.90;;;;;;5059460;28;20045;-66
2022/11/15 07:25:45;;;;;;;7.13;1.98;;;10.00;99.90;;;;;;5053448;28;20049;-66
2022/11/15 07:28:10;;;;;;;2.38;2.17;;;10.00;99.90;;;;;;5058109;28;20100;-66
2022/11/15 07:30:36;;;;;;;1.30;1.20;;;10.10;99.90;;;;;;5057370;28;20047;-66
2022/11/15 07:33:01;;;;;;;1.90;1.17;;;10.10;99.90;;;;;;5072200;28;20052;-66
2022/11/15 07:35:28;;;;;;;1.33;1.33;;;10.20;99.90;;;;;;5058935;28;20053;-66
2022/11/15 07:38:03;;;;;;;1.20;1.10;;;10.20;99.90;;;;;;5052805;28;20164;-66
2022/11/15 07:40:32;;;;;;;0.77;0.77;;;10.20;99.90;;;;;;5059481;28;20048;-66
2022/11/15 07:43:02;;;;;;;0.40;0.40;;;10.20;99.90;;;;;;5061332;28;20503;-66
2022/11/15 07:45:28;;;;;;;0.50;0.50;;;10.20;99.90;;;;;;5071477;28;20056;-66
2022/11/15 07:47:55;;;;;;;3.25;0.93;;;10.20;99.90;;;;;;5072682;28;20033;-66
2022/11/15 07:50:22;;;;;;;0.65;0.65;;;10.30;99.90;;;;;;5070612;28;20071;-66
2022/11/15 07:52:56;;;;;;;4.15;0.88;;;10.30;99.90;;;;;;5053643;28;20044;-67
2022/11/15 07:55:23;;;;;;;0.17;0.17;;;10.30;99.90;;;;;;5057478;28;22179;-66
2022/11/15 07:57:49;;;;;;;0.22;0.22;;;10.40;99.90;;;;;;5060179;28;20547;-66
2022/11/15 08:00:15;;;;;;;0.25;0.25;;;10.40;99.90;;;;;;5060944;28;20136;-66
2022/11/15 08:02:41;;;;;;;0.32;0.32;;;10.40;99.90;;;;;;5064562;28;20054;-66
2022/11/15 08:05:07;;;;;;;1.67;1.58;;;10.40;99.90;;;;;;5061139;28;20033;-66
2022/11/15 08:07:33;;;;;;;0.32;0.32;;;10.50;99.90;;;;;;5065421;28;20143;-66
2022/11/15 08:10:00;;;;;;;1.33;1.25;;;10.50;99.90;;;;;;5056712;28;20047;-67
2022/11/15 08:12:28;;;;;;;2.45;2.35;;;10.60;99.90;;;;;;5056882;28;20098;-66
2022/11/15 08:14:54;;;;;;;2.42;1.80;;;10.50;99.90;;;;;;5061057;28;20045;-66
2022/11/15 08:17:20;;;;;;;0.35;0.30;;;10.60;99.90;;;;;;5045840;28;20504;-65
2022/11/15 08:19:45;;;;;;;4.57;2.05;;;10.60;99.90;;;;;;5062911;28;20029;-66
2022/11/15 08:22:11;;;;;;;0.52;0.52;;;10.60;99.90;;;;;;5059764;28;20036;-65
2022/11/15 08:24:37;;;;;;;4.30;2.53;;;10.60;99.90;;;;;;5064280;28;20050;-66
2022/11/15 08:27:02;;;;;;;1.63;1.55;;;10.60;99.90;;;;;;5063791;28;20076;-66
2022/11/15 08:29:28;;;;;;;1.23;1.23;;;10.60;99.90;;;;;;5060548;28;20041;-67
2022/11/15 08:31:55;;;;;;;0.22;0.22;;;10.70;99.90;;;;;;5054719;28;20808;-67
2022/11/15 08:34:21;;;;;;;0.20;0.20;;;10.70;99.90;;;;;;5058127;28;20339;-66
2022/11/15 08:36:47;;;;;;;1.00;1.00;;;10.70;99.90;;;;;;5066231;28;20071;-66
2022/11/15 08:39:13;;;;;;;0.45;0.45;;;10.70;99.90;;;;;;5070260;28;20502;-66
2022/11/15 08:41:39;;;;;;;0.40;0.40;;;10.80;99.90;;;;;;5068801;28;20082;-67
2022/11/15 08:44:04;;;;;;;0.13;0.13;;;10.80;99.90;;;;;;5047676;28;20098;-67
2022/11/15 08:46:30;;;;;;;0.55;0.55;;;10.90;99.90;;;;;;5040014;28;20049;-66
2022/11/15 08:48:56;;;;;;;0.50;0.50;;;11.00;99.90;;;;;;5056026;28;20071;-66
2022/11/15 08:51:21;;;;;;;0.40;0.40;;;11.00;99.90;;;;;;5070297;28;20545;-66
2022/11/15 08:53:47;;;;;;;3.03;2.75;;;11.00;99.90;;;;;;5071081;28;20064;-67
2022/11/15 08:56:14;;;;;;;0.93;0.88;;;11.00;99.90;;;;;;5047764;28;20408;-67
2022/11/15 08:58:40;;;;;;;1.73;1.60;;;11.10;99.90;;;;;;5055030;28;20044;-67
2022/11/15 09:01:14;;;;;;;0.20;0.20;;;11.10;99.90;;;;;;5067016;28;21455;-66
2022/11/15 09:03:40;;;;;;;0.10;0.10;;;11.10;99.90;;;;;;5033153;28;20102;-66
2022/11/15 09:06:06;;;;;;;0.22;0.15;;;11.10;99.90;;;;;;5051366;28;20048;-66
2022/11/15 09:08:32;;;;;;;0.32;0.32;;;11.10;99.90;;;;;;5058735;28;20044;-66
2022/11/15 09:10:57;;;;;;;2.58;1.52;;;11.10;99.90;;;;;;5035398;28;20056;-66
2022/11/15 09:13:23;;;;;;;0.52;0.52;;;11.10;99.90;;;;;;5064518;28;20754;-66
2022/11/15 09:15:48;;;;;;;0.95;0.95;;;11.10;99.90;;;;;;5059057;28;20045;-66
2022/11/15 09:18:14;;;;;;;1.20;1.15;;;11.10;99.90;;;;;;5071023;28;20090;-66
2022/11/15 09:20:40;;;;;;;1.23;1.17;;;11.10;99.90;;;;;;5065331;28;20101;-65
2022/11/15 09:23:06;;;;;;;0.63;0.63;;;11.20;99.90;;;;;;5070540;28;20048;-66
2022/11/15 09:25:32;;;;;;;0.13;0.13;;;11.20;99.90;;;;;;5052762;28;20059;-66
2022/11/15 09:27:57;;;;;;;0.40;0.40;;;11.20;99.90;;;;;;5063378;28;20400;-66
2022/11/15 09:30:24;;;;;;;0.50;0.50;;;11.30;99.90;;;;;;5033931;28;20051;-66
2022/11/15 09:32:50;;;;;;;0.65;0.65;;;11.30;99.90;;;;;;5070764;28;20076;-65
2022/11/15 09:35:16;;;;;;;0.20;0.20;;;11.40;99.90;;;;;;5069872;28;20463;-66
2022/11/15 09:37:42;;;;;;;2.45;1.30;;;11.40;99.90;;;;;;5053454;28;20040;-65
2022/11/15 09:40:16;;;;;;;1.02;0.65;;;11.40;99.90;;;;;;5070513;28;20431;-65
2022/11/15 09:43:04;;;;;;;0.47;0.47;;;11.40;99.90;;;;;;5039035;28;20512;-65
2022/11/15 09:45:49;;;;;;;0.30;0.30;;;11.40;99.90;;;;;;5051851;28;20086;-66
2022/11/15 09:48:21;;;;;;;0.55;0.55;;;11.30;99.90;;;;;;5050538;28;20064;-66
2022/11/15 09:50:51;;;;;;;1.00;1.00;;;11.30;99.90;;;;;;5050036;28;20049;-66
2022/11/15 09:53:30;;;;;;;1.38;1.27;;;11.30;99.90;;;;;;5059479;28;20131;-66
2022/11/15 09:56:12;;;;;;;0.47;0.40;;;11.30;99.90;;;;;;5052489;28;20123;-66
2022/11/15 09:58:51;;;;;;;1.60;1.50;;;11.30;99.90;;;;;;5060525;28;20131;-65
2022/11/15 10:01:38;;;;;;;0.50;0.50;;;11.40;99.90;;;;;;5052563;28;20258;-65
2022/11/15 10:04:05;;;;;;;0.98;0.85;;;11.40;99.90;;;;;;5050060;28;20048;-66
2022/11/15 10:06:35;;;;;;;1.67;1.58;;;11.40;99.90;;;;;;5067320;28;20040;-66
2022/11/15 10:09:28;;;;;;;2.10;1.00;;;11.40;99.90;;;;;;5058431;28;20124;-66
2022/11/15 10:11:55;;;;;;;0.30;0.30;;;11.40;99.90;;;;;;5049930;28;20545;-66
2022/11/15 10:14:24;;;;;;;1.40;1.30;;;11.50;99.90;;;;;;5053120;28;20380;-66
2022/11/15 10:17:18;;;;;;;0.75;0.75;;;11.50;99.90;;;;;;5066317;28;20056;-65
2022/11/15 10:19:58;;;;;;;;;;;11.60;99.90;;;;;;5070115;28;20062;-65
2022/11/15 10:22:31;;;;;;;0.10;0.10;;;11.60;99.90;;;;;;5049728;28;20390;-65
2022/11/15 10:25:03;;;;;;;0.75;0.75;;;11.70;99.90;;;;;;5056172;28;20062;-65
2022/11/15 10:27:29;;;;;;;0.70;0.70;;;11.70;99.90;;;;;;5050660;28;20052;-65
2022/11/15 10:29:55;;;;;;;0.45;0.40;;;11.80;99.90;;;;;;5050279;28;20572;-65
2022/11/15 10:32:21;;;;;;;0.85;0.85;;;11.80;99.90;;;;;;5064756;28;20144;-65
2022/11/15 10:34:49;;;;;;;0.10;0.10;;;11.80;99.90;;;;;;5056645;28;20496;-65
2022/11/15 10:37:26;;;;;;;1.33;1.02;;;11.80;99.90;;;;;;5049779;28;20440;-66
2022/11/15 10:40:06;;;;;;;0.38;0.38;;;11.80;99.90;;;;;;5048810;28;20048;-65
2022/11/15 10:42:32;;;;;;;1.17;1.08;;;11.90;99.90;;;;;;5050489;28;20570;-66
2022/11/15 10:44:58;;;;;;;0.30;0.30;;;11.90;99.90;;;;;;5048539;28;20045;-66
2022/11/15 10:47:28;;;;;;;0.50;0.50;;;11.90;99.90;;;;;;5038609;28;20053;-65
2022/11/15 10:49:59;;;;;;;0.45;0.45;;;11.90;99.90;;;;;;5050688;28;20044;-66
2022/11/15 10:52:26;;;;;;;1.55;1.42;;;12.00;99.90;;;;;;5068065;28;20052;-65
2022/11/15 10:55:12;;;;;;;0.65;0.65;;;11.90;99.90;;;;;;5069974;28;20090;-66
2022/11/15 10:57:39;;;;;;;0.20;0.20;;;12.00;99.90;;;;;;5040979;28;20064;-66
2022/11/15 11:00:31;;;;;;;1.83;1.33;;;11.90;99.90;;;;;;5045173;28;20738;-66
2022/11/15 11:03:03;;;;;;;1.20;1.13;;;12.00;99.90;;;;;;5053677;28;20577;-66
2022/11/15 11:05:37;;;;;;;0.60;0.60;;;12.00;99.90;;;;;;5049280;28;20129;-65
2022/11/15 11:08:15;;;;;;;0.35;0.35;;;12.00;99.90;;;;;;5053777;28;20073;-66
2022/11/15 11:10:54;;;;;;;0.22;0.22;;;12.00;99.90;;;;;;5065964;28;20049;-66
2022/11/15 11:13:24;;;;;;;0.08;0.08;;;12.10;99.90;;;;;;5063397;28;20398;-65
2022/11/15 11:16:13;;;;;;;0.32;0.32;;;12.10;99.90;;;;;;5056817;28;20043;-65
2022/11/15 11:18:53;;;;;;;0.73;0.73;;;12.20;99.90;;;;;;5051822;28;20055;-65
2022/11/15 11:21:36;;;;;;;0.35;0.35;;;12.20;99.90;;;;;;5048208;28;20056;-66
2022/11/15 11:24:26;;;;;;;0.38;0.38;;;12.20;99.90;;;;;;5059220;28;20040;-66
2022/11/15 11:27:10;;;;;;;0.75;0.75;;;12.20;99.90;;;;;;5063925;28;21461;-65
2022/11/15 11:29:54;;;;;;;0.20;0.20;;;12.30;99.90;;;;;;5063705;28;20080;-65
2022/11/15 11:32:46;;;;;;;0.32;0.32;;;12.40;99.90;;;;;;5063999;28;20059;-66
2022/11/15 11:35:32;;;;;;;0.10;0.10;;;12.40;99.90;;;;;;5056356;28;20553;-66
2022/11/15 11:38:11;;;;;;;0.47;0.47;;;12.40;99.90;;;;;;5068610;28;20605;-66
2022/11/15 11:40:40;;;;;;;0.30;0.30;;;12.30;99.90;;;;;;5052369;28;20472;-66
2022/11/15 11:43:13;;;;;;;0.17;0.17;;;12.30;99.90;;;;;;5041558;28;20059;-66
2022/11/15 11:46:08;;;;;;;0.65;0.65;;;12.40;99.90;;;;;;5065164;28;20383;-65
2022/11/15 11:48:46;;;;;;;0.10;0.10;;;12.40;99.90;;;;;;5071765;28;20063;-66
2022/11/15 11:51:24;;;;;;;0.40;0.40;;;12.40;99.90;;;;;;5052881;28;20084;-66
2022/11/15 11:53:52;;;;;;;0.40;0.40;;;12.40;99.90;;;;;;5053300;28;20474;-65
2022/11/15 11:56:27;;;;;;;1.08;0.98;;;12.40;99.90;;;;;;5060155;28;20496;-66
2022/11/15 11:58:57;;;;;;;0.55;0.55;;;12.50;99.90;;;;;;5061315;28;20047;-66
2022/11/15 12:01:33;;;;;;;1.55;1.45;;;12.60;99.90;;;;;;5054534;28;20060;-67
2022/11/15 12:04:11;;;;;;;1.60;0.85;;;12.60;99.90;;;;;;5062616;28;20055;-66
2022/11/15 12:06:51;;;;;;;0.65;0.65;;;12.70;99.90;;;;;;5055704;28;20044;-66
2022/11/15 12:09:37;;;;;;;0.38;0.38;;;12.80;99.90;;;;;;5051291;28;20570;-66
2022/11/15 12:12:31;;;;;;;1.13;0.88;;;12.90;99.90;;;;;;5058958;28;20124;-65
2022/11/15 12:15:16;;;;;;;0.10;0.10;;;12.90;99.90;;;;;;5060955;28;20052;-66
2022/11/15 12:17:42;;;;;;;0.47;0.47;;;12.90;99.90;;;;;;5072024;28;20574;-66
2022/11/15 12:20:24;;;;;;;0.25;0.25;;;12.90;99.90;;;;;;5051845;28;20053;-66
2022/11/15 12:22:59;;;;;;;0.15;0.15;;;12.90;99.90;;;;;;5052717;28;20404;-65
2022/11/15 12:25:25;;;;;;;0.10;0.10;;;13.00;99.90;;;;;;5051077;28;20040;-66
2022/11/15 12:28:49;;;;;;;0.52;0.52;;;13.10;99.90;;;;;;5067706;28;20048;-66
2022/11/15 12:31:22;;;;;;;0.10;0.10;;;13.20;99.90;;;;;;5009587;28;20484;-66
2022/11/15 12:33:49;;;;;;;0.10;0.10;;;13.40;99.90;;;;;;5065284;28;20064;-66
2022/11/15 12:36:20;;;;;;;0.40;0.40;;;13.40;99.90;;;;;;5059237;28;20083;-66
2022/11/15 12:38:59;;;;;;;0.38;0.38;;;13.50;99.90;;;;;;5050985;28;20040;-66
2022/11/15 12:41:28;;;;;;;3.13;1.58;;;13.70;99.90;;;;;;5054519;28;20036;-65
2022/11/15 12:43:55;;;;;;;0.30;0.30;;;13.90;99.90;;;;;;5070704;28;20079;-65
2022/11/15 12:46:29;;;;;;;0.43;0.43;;;13.90;99.90;;;;;;5059559;28;20045;-65
2022/11/15 12:48:58;;;;;;;0.32;0.32;;;14.30;99.90;;;;;;5036901;28;20455;-65
2022/11/15 12:51:42;;;;;;;0.25;0.25;;;14.40;99.90;;;;;;5052017;28;20045;-65
2022/11/15 12:54:23;;;;;;;0.43;0.43;;;14.70;99.90;;;;;;5050842;28;20136;-65
2022/11/15 12:57:06;;;;;;;0.57;0.55;;;14.80;99.90;;;;;;5061973;28;20488;-65
2022/11/15 12:59:50;;;;;;;0.10;0.10;;;14.70;99.90;;;;;;5071187;28;20169;-65
2022/11/15 13:02:35;;;;;;;0.57;0.57;;;14.60;99.90;;;;;;5067103;28;20060;-65
2022/11/15 13:05:13;;;;;;;0.20;0.20;;;14.60;99.90;;;;;;5051231;28;20040;-66
2022/11/15 13:07:42;;;;;;;0.30;0.30;;;14.50;99.90;;;;;;5051096;28;20052;-65
2022/11/15 13:10:13;;;;;;;0.10;0.10;;;14.50;99.90;;;;;;5060721;28;20442;-65
2022/11/15 13:12:44;;;;;;;0.00;0.00;;;14.40;99.90;;;;;;5055441;28;20114;-66
2022/11/15 13:15:13;;;;;;;0.47;0.47;;;14.50;99.90;;;;;;5061224;28;20484;-66
2022/11/15 13:17:49;;;;;;;0.10;0.10;;;14.50;99.90;;;;;;5063193;28;20049;-66
2022/11/15 13:20:14;;;;;;;0.05;0.05;;;14.50;99.90;;;;;;5052354;28;20059;-65
2022/11/15 13:22:54;;;;;;;0.10;0.10;;;14.30;99.90;;;;;;5052876;28;20048;-66
2022/11/15 13:25:25;;;;;;;0.10;0.10;;;14.20;99.90;;;;;;5050335;28;20126;-66